createdAt,value
2023-04-16T00:00:09.662Z,-1.26
2023-04-16T00:02:39.666Z,-1.15
2023-04-16T00:05:08.288Z,-1.28
2023-04-16T00:07:36.278Z,-1.86
2023-04-16T00:10:04.187Z,-1.94
2023-04-16T00:12:33.543Z,-1.89
2023-04-16T00:15:02.137Z,-1.92
2023-04-16T00:17:32.323Z,-1.62
2023-04-16T00:20:00.567Z,-1.47
2023-04-16T00:22:28.414Z,-1.34
2023-04-16T00:24:56.499Z,-1.14
2023-04-16T00:27:24.896Z,-1.56
2023-04-16T00:29:52.749Z,-2.02
2023-04-16T00:32:20.686Z,-1.60
2023-04-16T00:34:49.017Z,-1.66
2023-04-16T00:37:16.989Z,-1.74
2023-04-16T00:39:44.926Z,-1.75
2023-04-16T00:42:13.131Z,-1.36
2023-04-16T00:44:41.121Z,-1.27
2023-04-16T00:47:09.211Z,-1.11
2023-04-16T00:49:37.992Z,-1.44
2023-04-16T00:52:06.250Z,-1.25
2023-04-16T00:54:34.282Z,-0.91
2023-04-16T00:57:03.384Z,-1.13
2023-04-16T00:59:31.882Z,-1.50
2023-04-16T01:01:59.920Z,-1.87
2023-04-16T01:04:31.298Z,-2.21
2023-04-16T01:06:59.238Z,-2.30
2023-04-16T01:09:27.034Z,-1.91
2023-04-16T01:11:55.319Z,-1.99
2023-04-16T01:14:23.086Z,-1.90
2023-04-16T01:16:51.037Z,-1.54
2023-04-16T01:19:19.379Z,-1.57
2023-04-16T01:21:47.326Z,-1.07
2023-04-16T01:24:15.243Z,-0.86
2023-04-16T01:26:43.479Z,-0.80
2023-04-16T01:29:11.623Z,-0.85
2023-04-16T01:31:39.422Z,-0.94
2023-04-16T01:34:07.802Z,-0.55
2023-04-16T01:36:35.727Z,-0.27
2023-04-16T01:39:03.660Z,-0.16
2023-04-16T01:41:32.536Z,-0.25
2023-04-16T01:44:01.573Z,-0.65
2023-04-16T01:46:31.391Z,-1.12
2023-04-16T01:48:59.782Z,-1.23
2023-04-16T01:51:28.461Z,-0.97
2023-04-16T01:53:58.496Z,-0.70
2023-04-16T01:56:26.878Z,-0.56
2023-04-16T01:58:54.860Z,-0.43
2023-04-16T02:01:24.549Z,-0.41
2023-04-16T02:03:53.799Z,-0.44
2023-04-16T02:06:21.888Z,-0.47
2023-04-16T02:08:50.024Z,-0.67
2023-04-16T02:11:18.287Z,-0.77
2023-04-16T02:13:46.488Z,-0.79
2023-04-16T02:16:14.534Z,-0.74
2023-04-16T02:19:04.913Z,-0.76
2023-04-16T02:21:33.475Z,-0.63
2023-04-16T02:24:01.555Z,-0.49
2023-04-16T02:26:30.954Z,-0.47
2023-04-16T02:29:00.036Z,-0.58
2023-04-16T02:31:29.065Z,-0.42
2023-04-16T02:33:57.683Z,-0.38
2023-04-16T02:36:25.949Z,-0.41
2023-04-16T02:38:55.415Z,-0.38
2023-04-16T02:41:23.346Z,-0.39
2023-04-16T02:43:51.595Z,-0.45
2023-04-16T02:46:19.869Z,-0.28
2023-04-16T02:48:47.922Z,-0.19
2023-04-16T02:51:17.034Z,-0.09
2023-04-16T02:53:46.360Z,0.02
2023-04-16T02:56:14.601Z,0.07
2023-04-16T02:58:42.933Z,0.08
2023-04-16T03:01:10.694Z,-0.02
2023-04-16T03:03:38.654Z,0.17
2023-04-16T03:06:06.909Z,0.34
2023-04-16T03:08:34.693Z,0.39
2023-04-16T03:11:02.688Z,0.44
2023-04-16T03:13:30.947Z,0.44
2023-04-16T03:15:59.013Z,0.53
2023-04-16T03:18:26.801Z,0.55
2023-04-16T03:20:54.936Z,0.56
2023-04-16T03:23:22.704Z,0.60
2023-04-16T03:25:51.467Z,0.66
2023-04-16T03:28:19.576Z,0.55
2023-04-16T03:30:54.404Z,0.65
2023-04-16T03:33:23.007Z,0.73
2023-04-16T03:35:59.450Z,0.78
2023-04-16T03:38:29.473Z,0.83
2023-04-16T03:40:57.478Z,0.93
2023-04-16T03:43:27.845Z,0.97
2023-04-16T03:45:55.984Z,1.02
2023-04-16T03:48:24.129Z,1.07
2023-04-16T03:50:52.022Z,1.12
2023-04-16T03:53:20.752Z,1.17
2023-04-16T03:55:53.121Z,1.20
2023-04-16T03:58:21.844Z,1.32
2023-04-16T04:00:50.024Z,1.48
2023-04-16T04:03:19.022Z,1.68
2023-04-16T04:05:47.489Z,1.96
2023-04-16T04:08:16.166Z,2.15
2023-04-16T04:10:46.132Z,2.30
2023-04-16T04:13:15.009Z,2.49
2023-04-16T04:15:44.305Z,2.67
2023-04-16T04:18:12.597Z,2.86
2023-04-16T04:20:41.578Z,3.05
2023-04-16T04:23:09.523Z,3.16
2023-04-16T04:25:37.625Z,3.28
2023-04-16T04:28:05.837Z,3.49
2023-04-16T04:30:36.030Z,3.67
2023-04-16T04:33:04.608Z,3.87
2023-04-16T04:35:32.580Z,4.05
2023-04-16T04:38:02.664Z,4.23
2023-04-16T04:40:31.846Z,4.42
2023-04-16T04:42:59.649Z,4.61
2023-04-16T04:45:29.618Z,4.79
2023-04-16T04:47:59.573Z,4.98
2023-04-16T04:50:27.567Z,5.17
2023-04-16T04:52:55.626Z,5.34
2023-04-16T04:55:23.957Z,5.68
2023-04-16T04:57:51.804Z,6.06
2023-04-16T05:00:22.159Z,6.34
2023-04-16T05:02:52.734Z,6.64
2023-04-16T05:05:21.127Z,6.97
2023-04-16T05:07:49.093Z,7.22
2023-04-16T05:10:17.423Z,7.52
2023-04-16T05:12:50.055Z,7.87
2023-04-16T05:15:18.233Z,8.22
2023-04-16T05:17:46.324Z,8.43
2023-04-16T05:20:14.924Z,8.85
2023-04-16T05:22:43.162Z,9.07
2023-04-16T05:25:10.974Z,9.09
2023-04-16T05:27:38.866Z,9.14
2023-04-16T05:30:07.808Z,9.13
2023-04-16T05:32:36.236Z,9.35
2023-04-16T05:35:04.138Z,9.44
2023-04-16T05:37:32.267Z,9.64
2023-04-16T05:40:00.248Z,9.81
2023-04-16T05:42:28.044Z,9.90
2023-04-16T05:44:56.496Z,9.90
2023-04-16T05:47:24.940Z,10.13
2023-04-16T05:49:53.810Z,10.33
2023-04-16T05:52:27.251Z,10.64
2023-04-16T05:54:55.439Z,11.01
2023-04-16T05:57:23.607Z,11.31
2023-04-16T05:59:51.362Z,11.47
2023-04-16T06:02:19.305Z,11.79
2023-04-16T06:04:47.938Z,12.00
2023-04-16T06:07:15.831Z,12.34
2023-04-16T06:09:46.148Z,12.69
2023-04-16T06:12:14.242Z,12.92
2023-04-16T06:14:41.956Z,13.05
2023-04-16T06:17:10.083Z,12.99
2023-04-16T06:19:39.184Z,13.08
2023-04-16T06:22:07.735Z,13.18
2023-04-16T06:24:35.669Z,13.22
2023-04-16T06:27:04.206Z,13.26
2023-04-16T06:29:40.463Z,13.53
2023-04-16T06:32:10.112Z,13.97
2023-04-16T06:34:39.568Z,14.15
2023-04-16T06:37:10.386Z,14.67
2023-04-16T06:39:38.820Z,14.58
2023-04-16T06:42:06.589Z,14.52
2023-04-16T06:44:34.450Z,14.79
2023-04-16T06:47:02.784Z,14.87
2023-04-16T06:49:30.695Z,15.16
2023-04-16T06:51:58.599Z,15.34
2023-04-16T06:54:26.810Z,15.27
2023-04-16T06:56:54.657Z,15.30
2023-04-16T06:59:22.367Z,14.76
2023-04-16T07:01:52.111Z,15.62
2023-04-16T07:04:20.353Z,16.15
2023-04-16T07:06:48.342Z,16.34
2023-04-16T07:09:18.757Z,16.78
2023-04-16T07:11:49.049Z,16.54
2023-04-16T07:14:17.801Z,16.57
2023-04-16T07:16:57.527Z,16.87
2023-04-16T07:19:32.781Z,16.53
2023-04-16T07:22:04.220Z,16.80
2023-04-16T07:24:33.016Z,16.62
2023-04-16T07:27:00.882Z,17.09
2023-04-16T07:29:29.280Z,17.89
2023-04-16T07:31:58.265Z,18.17
2023-04-16T07:34:26.388Z,17.89
2023-04-16T07:36:56.201Z,17.95
2023-04-16T07:39:25.185Z,17.37
2023-04-16T07:41:54.050Z,17.16
2023-04-16T07:44:22.055Z,15.82
2023-04-16T07:46:50.773Z,16.92
2023-04-16T07:49:25.679Z,17.04
2023-04-16T07:51:54.395Z,17.15
2023-04-16T07:54:22.645Z,17.19
2023-04-16T07:56:50.820Z,18.14
2023-04-16T07:59:23.596Z,18.44
2023-04-16T08:02:09.332Z,18.62
2023-04-16T08:04:37.838Z,18.35
2023-04-16T08:07:09.579Z,18.99
2023-04-16T08:09:51.992Z,18.40
2023-04-16T08:12:23.305Z,18.65
2023-04-16T08:14:54.673Z,18.40
2023-04-16T08:17:24.457Z,18.64
2023-04-16T08:19:56.078Z,19.19
2023-04-16T08:22:24.226Z,19.39
2023-04-16T08:24:52.262Z,19.37
2023-04-16T08:27:21.657Z,18.31
2023-04-16T08:29:49.661Z,18.71
2023-04-16T08:32:17.495Z,18.89
2023-04-16T08:34:46.043Z,18.10
2023-04-16T08:37:14.732Z,16.91
2023-04-16T08:39:42.856Z,17.45
2023-04-16T08:42:24.080Z,18.38
2023-04-16T08:47:51.665Z,17.33
2023-04-16T08:50:27.350Z,18.80
2023-04-16T08:53:07.111Z,19.92
2023-04-16T08:55:40.059Z,19.31
2023-04-16T08:58:26.483Z,18.85
2023-04-16T09:00:55.560Z,18.62
2023-04-16T09:03:24.760Z,17.01
2023-04-16T09:05:53.742Z,19.07
2023-04-16T09:08:22.041Z,20.48
2023-04-16T09:10:51.587Z,18.85
2023-04-16T09:13:20.959Z,20.15
2023-04-16T09:15:57.440Z,21.46
2023-04-16T09:18:26.279Z,20.04
2023-04-16T09:20:56.691Z,20.45
2023-04-16T09:23:25.582Z,19.51
2023-04-16T09:25:54.539Z,18.74
2023-04-16T09:28:46.290Z,19.47
2023-04-16T09:31:20.173Z,17.41
2023-04-16T09:34:06.338Z,18.88
2023-04-16T09:36:36.722Z,20.49
2023-04-16T09:39:07.711Z,19.77
2023-04-16T09:41:36.448Z,18.51
2023-04-16T09:44:05.853Z,21.37
2023-04-16T09:46:41.889Z,19.38
2023-04-16T09:49:19.007Z,20.81
2023-04-16T09:51:50.025Z,18.66
2023-04-16T09:54:20.862Z,21.56
2023-04-16T09:56:49.015Z,21.36
2023-04-16T09:59:20.867Z,22.43
2023-04-16T10:01:50.772Z,22.34
2023-04-16T10:04:20.740Z,23.41
2023-04-16T10:07:10.454Z,21.24
2023-04-16T10:09:39.809Z,18.58
2023-04-16T10:12:08.540Z,20.58
2023-04-16T10:14:36.740Z,19.54
2023-04-16T10:17:06.716Z,22.19
2023-04-16T10:19:35.528Z,22.39
2023-04-16T10:22:03.853Z,22.24
2023-04-16T10:24:33.753Z,22.44
2023-04-16T10:27:02.892Z,21.44
2023-04-16T10:29:32.532Z,19.99
2023-04-16T10:32:01.568Z,21.19
2023-04-16T10:34:31.690Z,22.40
2023-04-16T10:36:59.667Z,21.67
2023-04-16T10:39:31.205Z,19.83
2023-04-16T10:42:09.467Z,20.79
2023-04-16T10:44:41.907Z,19.60
2023-04-16T10:47:16.003Z,18.59
2023-04-16T10:49:44.348Z,19.92
2023-04-16T10:52:14.107Z,18.96
2023-04-16T10:54:41.996Z,21.66
2023-04-16T10:57:15.367Z,21.31
2023-04-16T10:59:44.592Z,22.72
2023-04-16T11:02:18.661Z,22.15
2023-04-16T11:04:50.923Z,22.21
2023-04-16T11:07:22.009Z,20.65
2023-04-16T11:09:53.474Z,22.40
2023-04-16T11:12:27.795Z,20.81
2023-04-16T11:15:04.019Z,18.20
2023-04-16T11:17:49.127Z,20.81
2023-04-16T11:20:26.246Z,21.73
2023-04-16T11:22:57.035Z,20.23
2023-04-16T11:25:30.300Z,18.91
2023-04-16T11:28:01.840Z,18.71
2023-04-16T11:30:37.200Z,18.85
2023-04-16T11:33:11.628Z,18.50
2023-04-16T11:35:40.350Z,18.58
2023-04-16T11:38:08.718Z,18.65
2023-04-16T11:40:36.821Z,19.90
2023-04-16T11:43:13.718Z,20.72
2023-04-16T11:45:57.848Z,20.00
2023-04-16T11:48:25.858Z,18.60
2023-04-16T11:51:00.044Z,20.38
2023-04-16T11:53:27.841Z,19.11
2023-04-16T11:55:56.829Z,19.08
2023-04-16T11:58:24.596Z,18.79
2023-04-16T12:00:57.125Z,18.35
2023-04-16T12:03:46.566Z,18.79
2023-04-16T12:06:14.754Z,17.92
2023-04-16T12:08:43.595Z,17.67
2023-04-16T12:11:11.623Z,17.95
2023-04-16T12:13:40.409Z,16.68
2023-04-16T12:16:21.479Z,16.48
2023-04-16T12:19:04.366Z,17.16
2023-04-16T12:21:40.328Z,17.40
2023-04-16T12:24:09.776Z,16.41
2023-04-16T12:26:46.851Z,15.84
2023-04-16T12:29:21.957Z,15.88
2023-04-16T12:31:54.715Z,17.42
2023-04-16T12:34:46.662Z,19.19
2023-04-16T12:37:11.581Z,20.06
2023-04-16T12:39:39.518Z,21.17
2023-04-16T12:42:10.261Z,21.49
2023-04-16T12:44:38.533Z,22.16
2023-04-16T12:47:06.464Z,22.56
2023-04-16T12:49:34.516Z,21.66
2023-04-16T12:52:03.602Z,21.95
2023-04-16T12:54:31.755Z,22.79
2023-04-16T12:56:59.802Z,23.41
2023-04-16T12:59:28.143Z,23.65
2023-04-16T13:01:56.488Z,23.88
2023-04-16T13:04:25.839Z,24.16
2023-04-16T13:06:54.450Z,24.30
2023-04-16T13:09:26.419Z,23.66
2023-04-16T13:11:54.803Z,22.88
2023-04-16T13:14:22.898Z,22.83
2023-04-16T13:16:50.998Z,22.59
2023-04-16T13:19:19.561Z,22.33
2023-04-16T13:21:47.684Z,21.76
2023-04-16T13:27:01.391Z,19.62
2023-04-16T13:29:30.453Z,19.50
2023-04-16T13:31:58.733Z,20.20
2023-04-16T13:34:27.002Z,20.65
2023-04-16T13:36:54.826Z,21.30
2023-04-16T13:39:22.965Z,22.30
2023-04-16T13:41:51.754Z,23.15
2023-04-16T13:44:19.744Z,23.32
2023-04-16T13:46:48.284Z,23.53
2023-04-16T13:49:16.779Z,23.94
2023-04-16T13:51:47.477Z,24.65
2023-04-16T13:54:15.255Z,24.65
2023-04-16T13:56:43.577Z,24.87
2023-04-16T13:59:11.638Z,25.05
2023-04-16T14:01:40.234Z,25.30
2023-04-16T14:04:08.613Z,25.72
2023-04-16T14:06:39.546Z,25.73
2023-04-16T14:09:07.549Z,25.64
2023-04-16T14:11:36.536Z,25.40
2023-04-16T14:16:51.077Z,20.15
2023-04-16T14:19:18.979Z,18.85
2023-04-16T14:21:46.894Z,18.65
2023-04-16T14:24:15.111Z,18.46
2023-04-16T14:26:46.299Z,20.59
2023-04-16T14:29:14.114Z,22.14
2023-04-16T14:31:44.933Z,22.74
2023-04-16T14:34:13.685Z,23.15
2023-04-16T14:36:41.744Z,23.67
2023-04-16T14:39:10.848Z,23.44
2023-04-16T14:41:38.888Z,23.05
2023-04-16T14:44:07.095Z,23.20
2023-04-16T14:46:35.244Z,22.13
2023-04-16T14:49:03.259Z,21.33
2023-04-16T14:51:32.104Z,20.03
2023-04-16T14:54:00.380Z,18.84
2023-04-16T14:56:28.194Z,18.79
2023-04-16T14:58:56.067Z,19.55
2023-04-16T15:01:24.253Z,19.23
2023-04-16T15:03:52.491Z,19.41
2023-04-16T15:06:20.694Z,20.36
2023-04-16T15:08:49.077Z,21.04
2023-04-16T15:11:16.936Z,20.90
2023-04-16T15:13:44.721Z,20.14
2023-04-16T15:16:13.085Z,19.23
2023-04-16T15:18:41.024Z,18.59
2023-04-16T15:21:10.590Z,18.93
2023-04-16T15:23:40.619Z,17.82
2023-04-16T15:26:08.342Z,16.67
2023-04-16T15:28:36.390Z,16.86
2023-04-16T15:31:04.575Z,16.32
2023-04-16T15:33:32.826Z,14.75
2023-04-16T15:36:02.793Z,14.91
2023-04-16T15:38:31.488Z,15.68
2023-04-16T15:41:01.197Z,16.05
2023-04-16T15:43:31.734Z,15.66
2023-04-16T15:46:03.495Z,16.58
2023-04-16T15:48:37.687Z,15.93
2023-04-16T15:51:06.507Z,15.66
2023-04-16T15:53:35.039Z,16.14
2023-04-16T15:56:02.841Z,16.19
2023-04-16T15:58:31.132Z,15.59
2023-04-16T16:00:59.261Z,15.25
2023-04-16T16:03:27.759Z,15.39
2023-04-16T16:05:57.559Z,15.17
2023-04-16T16:08:27.827Z,15.23
2023-04-16T16:10:55.756Z,15.24
2023-04-16T16:13:24.020Z,14.86
2023-04-16T16:15:52.523Z,14.86
2023-04-16T16:18:22.315Z,14.72
2023-04-16T16:20:52.144Z,14.44
2023-04-16T16:23:20.476Z,14.29
2023-04-16T16:25:48.344Z,14.22
2023-04-16T16:28:16.140Z,13.87
2023-04-16T16:30:45.416Z,13.89
2023-04-16T16:33:14.102Z,13.62
2023-04-16T16:35:42.123Z,13.67
2023-04-16T16:38:10.339Z,13.52
2023-04-16T16:40:39.990Z,13.39
2023-04-16T16:43:08.642Z,13.20
2023-04-16T16:45:36.945Z,13.14
2023-04-16T16:48:05.308Z,13.02
2023-04-16T16:50:33.395Z,13.06
2023-04-16T16:53:13.819Z,12.85
2023-04-16T16:55:41.850Z,12.70
2023-04-16T16:58:22.340Z,12.55
2023-04-16T17:01:08.963Z,12.44
2023-04-16T17:03:49.420Z,12.40
2023-04-16T17:06:18.374Z,12.24
2023-04-16T17:08:47.334Z,12.10
2023-04-16T17:11:16.837Z,12.02
2023-04-16T17:13:56.772Z,11.97
2023-04-16T17:16:25.247Z,11.79
2023-04-16T17:18:53.267Z,11.85
2023-04-16T17:21:24.366Z,11.71
2023-04-16T17:24:05.386Z,11.63
2023-04-16T17:26:33.387Z,11.58
2023-04-16T17:29:01.381Z,11.39
2023-04-16T17:31:29.889Z,11.30
2023-04-16T17:33:59.889Z,11.27
2023-04-16T17:36:47.472Z,11.22
2023-04-16T17:39:15.652Z,11.08
2023-04-16T17:41:44.184Z,10.85
2023-04-16T17:44:12.109Z,10.80
2023-04-16T17:46:58.002Z,10.68
2023-04-16T17:49:25.902Z,10.60
2023-04-16T17:51:54.729Z,10.53
2023-04-16T17:54:22.616Z,10.53
2023-04-16T17:56:50.978Z,10.40
2023-04-16T17:59:19.935Z,10.35
2023-04-16T18:01:49.826Z,10.20
2023-04-16T18:04:18.570Z,10.00
2023-04-16T18:06:47.137Z,9.20
2023-04-16T18:09:15.813Z,9.41
2023-04-16T18:11:43.956Z,9.49
2023-04-16T18:14:14.332Z,9.73
2023-04-16T18:16:42.341Z,9.69
2023-04-16T18:19:23.143Z,9.70
2023-04-16T18:21:55.626Z,9.69
2023-04-16T18:24:23.702Z,9.69
2023-04-16T18:27:04.194Z,9.74
2023-04-16T18:29:33.922Z,9.66
2023-04-16T18:32:04.163Z,9.59
2023-04-16T18:34:33.318Z,9.59
2023-04-16T18:37:01.441Z,9.45
2023-04-16T18:39:42.188Z,9.21
2023-04-16T18:42:10.004Z,9.27
2023-04-16T18:44:55.725Z,9.38
2023-04-16T18:47:23.772Z,9.40
2023-04-16T18:49:52.017Z,9.38
2023-04-16T18:52:19.950Z,9.32
2023-04-16T18:54:47.665Z,9.26
2023-04-16T18:57:16.066Z,9.27
2023-04-16T18:59:43.896Z,9.17
2023-04-16T19:02:11.909Z,9.12
2023-04-16T19:04:40.446Z,9.03
2023-04-16T19:07:08.264Z,8.90
2023-04-16T19:09:48.455Z,8.83
2023-04-16T19:12:16.807Z,8.74
2023-04-16T19:14:44.737Z,8.67
2023-04-16T19:17:12.821Z,8.68
2023-04-16T19:19:54.034Z,8.63
2023-04-16T19:22:21.950Z,8.53
2023-04-16T19:24:50.245Z,8.37
2023-04-16T19:27:18.154Z,8.35
2023-04-16T19:29:47.202Z,8.26
2023-04-16T19:32:16.022Z,8.31
2023-04-16T19:34:43.948Z,8.21
2023-04-16T19:37:11.980Z,8.10
2023-04-16T19:39:42.393Z,8.03
2023-04-16T19:42:10.242Z,8.04
2023-04-16T19:44:38.148Z,7.97
2023-04-16T19:47:06.870Z,7.91
2023-04-16T19:49:34.761Z,7.84
2023-04-16T19:52:02.745Z,7.70
2023-04-16T19:54:33.927Z,7.81
2023-04-16T19:57:01.896Z,7.78
2023-04-16T19:59:32.452Z,7.64
2023-04-16T20:02:12.489Z,7.58
2023-04-16T20:04:40.753Z,7.57
2023-04-16T20:07:08.684Z,7.42
2023-04-16T20:09:36.750Z,7.39
2023-04-16T20:12:05.086Z,7.23
2023-04-16T20:14:32.931Z,7.33
2023-04-16T20:17:02.195Z,7.26
2023-04-16T20:19:42.738Z,7.23
2023-04-16T20:22:10.697Z,7.14
2023-04-16T20:24:55.288Z,7.14
2023-04-16T20:27:23.277Z,7.03
2023-04-16T20:29:52.248Z,7.02
2023-04-16T20:32:20.349Z,6.96
2023-04-16T20:34:49.191Z,6.80
2023-04-16T20:37:17.680Z,6.86
2023-04-16T20:39:47.003Z,6.83
2023-04-16T20:42:14.869Z,6.75
2023-04-16T20:44:50.582Z,6.72
2023-04-16T20:47:18.504Z,6.69
2023-04-16T20:49:46.820Z,6.62
2023-04-16T20:52:15.920Z,6.46
2023-04-16T20:54:45.003Z,6.40
2023-04-16T20:57:14.049Z,6.46
2023-04-16T20:59:41.949Z,6.40
2023-04-16T21:02:10.168Z,6.43
2023-04-16T21:04:38.474Z,6.35
2023-04-16T21:07:06.538Z,6.32
2023-04-16T21:09:34.348Z,6.31
2023-04-16T21:12:02.914Z,6.13
2023-04-16T21:14:30.973Z,5.98
2023-04-16T21:16:58.840Z,5.99
2023-04-16T21:19:29.922Z,5.94
2023-04-16T21:21:57.883Z,6.05
2023-04-16T21:24:25.804Z,5.94
2023-04-16T21:26:53.995Z,5.86
2023-04-16T21:29:21.852Z,5.92
2023-04-16T21:31:49.842Z,6.11
2023-04-16T21:34:18.185Z,5.65
2023-04-16T21:36:46.480Z,5.86
2023-04-16T21:39:16.339Z,5.35
2023-04-16T21:41:44.506Z,5.74
2023-04-16T21:44:12.536Z,5.63
2023-04-16T21:46:40.476Z,5.57
2023-04-16T21:49:08.966Z,5.81
2023-04-16T21:51:38.141Z,6.02
2023-04-16T21:54:06.471Z,6.21
2023-04-16T21:56:34.593Z,6.02
2023-04-16T21:59:02.537Z,6.31
2023-04-16T22:01:30.514Z,6.04
2023-04-16T22:03:58.923Z,5.89
2023-04-16T22:06:27.519Z,5.78
2023-04-16T22:08:55.358Z,5.92
2023-04-16T22:11:23.628Z,5.90
2023-04-16T22:13:52.167Z,6.20
2023-04-16T22:16:22.356Z,6.30
2023-04-16T22:18:51.602Z,6.23
2023-04-16T22:21:19.405Z,5.99
2023-04-16T22:23:47.478Z,5.98
2023-04-16T22:26:15.919Z,5.91
2023-04-16T22:28:43.820Z,6.12
2023-04-16T22:31:11.833Z,6.14
2023-04-16T22:33:40.084Z,6.10
2023-04-16T22:36:08.191Z,6.03
2023-04-16T22:38:37.291Z,6.16
2023-04-16T22:41:05.735Z,6.20
2023-04-16T22:43:35.219Z,6.18
2023-04-16T22:46:09.876Z,6.22
2023-04-16T22:48:39.048Z,6.24
2023-04-16T22:51:09.376Z,6.35
2023-04-16T22:53:37.352Z,6.38
2023-04-16T22:56:05.983Z,6.40
2023-04-16T22:58:33.917Z,6.41
2023-04-16T23:01:02.053Z,6.42
2023-04-16T23:03:31.006Z,6.33
2023-04-16T23:05:58.953Z,6.31
2023-04-16T23:08:26.827Z,6.28
2023-04-16T23:10:55.051Z,6.05
2023-04-16T23:13:22.954Z,5.39
2023-04-16T23:15:51.202Z,5.56
2023-04-16T23:18:19.490Z,5.31
2023-04-16T23:20:51.014Z,4.89
2023-04-16T23:23:19.438Z,4.86
2023-04-16T23:25:47.453Z,5.24
2023-04-16T23:28:16.078Z,5.26
2023-04-16T23:30:44.372Z,4.51
2023-04-16T23:33:12.332Z,5.15
2023-04-16T23:35:40.226Z,5.61
2023-04-16T23:38:08.343Z,5.70
2023-04-16T23:40:36.221Z,5.65
2023-04-16T23:43:04.144Z,5.66
2023-04-16T23:45:32.424Z,5.70
2023-04-16T23:48:00.513Z,5.72
2023-04-16T23:50:28.575Z,5.76
2023-04-16T23:52:56.980Z,5.60
2023-04-16T23:55:25.087Z,5.62
2023-04-16T23:57:52.892Z,5.64
